createdAt,value
2022-12-06T00:01:45.732Z,85.10
2022-12-06T00:04:16.687Z,85.16
2022-12-06T00:06:47.793Z,85.18
2022-12-06T00:09:23.410Z,85.21
2022-12-06T00:11:51.930Z,85.18
2022-12-06T00:14:21.151Z,85.18
2022-12-06T00:16:49.124Z,85.24
2022-12-06T00:19:19.761Z,85.24
2022-12-06T00:21:47.967Z,85.29
2022-12-06T00:24:19.692Z,85.29
2022-12-06T00:26:49.489Z,85.34
2022-12-06T00:29:23.708Z,85.35
2022-12-06T00:31:51.642Z,85.39
2022-12-06T00:34:19.604Z,85.39
2022-12-06T00:36:48.854Z,85.39
2022-12-06T00:39:17.903Z,85.42
2022-12-06T00:41:45.752Z,85.43
2022-12-06T00:44:13.623Z,85.44
2022-12-06T00:46:41.691Z,85.44
2022-12-06T00:49:11.482Z,85.41
2022-12-06T00:51:39.865Z,85.45
2022-12-06T00:54:10.304Z,85.41
2022-12-06T00:56:38.163Z,85.39
2022-12-06T00:59:06.405Z,85.38
2022-12-06T01:01:35.660Z,85.38
2022-12-06T01:04:06.856Z,85.35
2022-12-06T01:06:36.791Z,85.34
2022-12-06T01:09:10.150Z,85.28
2022-12-06T01:11:38.187Z,85.26
2022-12-06T01:14:06.123Z,85.25
2022-12-06T01:16:34.631Z,85.23
2022-12-06T01:19:05.647Z,85.23
2022-12-06T01:21:33.699Z,85.23
2022-12-06T01:24:01.468Z,85.29
2022-12-06T01:26:33.299Z,85.27
2022-12-06T01:29:02.128Z,85.23
2022-12-06T01:31:37.155Z,85.27
2022-12-06T01:34:00.927Z,85.23
2022-12-06T01:36:28.745Z,85.23
2022-12-06T01:39:00.000Z,85.27
2022-12-06T01:41:28.370Z,85.25
2022-12-06T01:43:56.931Z,85.34
2022-12-06T01:46:45.209Z,85.38
2022-12-06T01:49:23.532Z,85.44
2022-12-06T01:51:56.512Z,85.45
2022-12-06T01:54:25.664Z,85.44
2022-12-06T01:56:55.768Z,85.43
2022-12-06T01:59:25.537Z,85.43
2022-12-06T02:01:55.013Z,85.46
2022-12-06T02:04:24.299Z,85.47
2022-12-06T02:06:54.542Z,85.51
2022-12-06T02:09:23.153Z,85.53
2022-12-06T02:11:51.039Z,85.54
2022-12-06T02:14:23.447Z,85.55
2022-12-06T02:17:08.711Z,85.56
2022-12-06T02:20:00.261Z,85.55
2022-12-06T02:23:00.710Z,85.54
2022-12-06T02:26:25.601Z,85.48
2022-12-06T02:29:35.317Z,85.46
2022-12-06T02:32:20.393Z,85.44
2022-12-06T02:34:53.555Z,85.44
2022-12-06T02:37:32.957Z,85.49
2022-12-06T02:40:17.661Z,85.54
2022-12-06T02:43:02.001Z,85.56
2022-12-06T02:45:38.367Z,85.61
2022-12-06T02:48:09.437Z,85.59
2022-12-06T02:50:42.451Z,85.53
2022-12-06T02:53:14.819Z,85.53
2022-12-06T02:55:44.927Z,85.47
2022-12-06T02:58:12.725Z,85.47
2022-12-06T03:00:44.658Z,85.44
2022-12-06T03:03:42.484Z,85.48
2022-12-06T03:06:33.527Z,85.45
2022-12-06T03:09:21.390Z,85.41
2022-12-06T03:11:57.507Z,85.45
2022-12-06T03:14:28.853Z,85.39
2022-12-06T03:17:22.815Z,85.41
2022-12-06T03:19:56.544Z,85.38
2022-12-06T03:22:39.600Z,85.36
2022-12-06T03:25:08.352Z,85.37
2022-12-06T03:27:36.663Z,85.36
2022-12-06T03:30:09.435Z,85.34
2022-12-06T03:32:40.971Z,85.35
2022-12-06T03:35:12.338Z,85.31
2022-12-06T03:37:43.771Z,85.25
2022-12-06T03:40:30.449Z,85.20
2022-12-06T03:42:59.706Z,85.22
2022-12-06T03:45:48.391Z,85.28
2022-12-06T03:48:24.485Z,85.33
2022-12-06T03:51:03.547Z,85.32
2022-12-06T03:53:32.150Z,85.38
2022-12-06T03:56:00.308Z,85.38
2022-12-06T03:58:27.787Z,85.41
2022-12-06T04:00:55.621Z,85.45
2022-12-06T04:03:23.535Z,85.43
2022-12-06T04:05:51.198Z,85.42
2022-12-06T04:08:19.007Z,85.47
2022-12-06T04:10:46.997Z,85.55
2022-12-06T04:13:19.465Z,85.62
2022-12-06T04:15:45.163Z,85.70
2022-12-06T04:18:14.621Z,85.80
2022-12-06T04:21:12.416Z,85.86
2022-12-06T04:23:43.750Z,85.80
2022-12-06T04:26:16.163Z,85.85
2022-12-06T04:29:02.646Z,85.91
2022-12-06T04:31:48.676Z,85.94
2022-12-06T04:34:35.610Z,86.04
2022-12-06T04:37:22.097Z,85.94
2022-12-06T04:39:50.258Z,85.98
2022-12-06T04:42:36.755Z,86.02
2022-12-06T04:45:06.581Z,86.04
2022-12-06T04:47:34.566Z,86.11
2022-12-06T04:50:02.813Z,86.09
2022-12-06T04:52:35.445Z,86.10
2022-12-06T04:55:00.373Z,86.10
2022-12-06T04:57:28.478Z,86.16
2022-12-06T04:59:56.508Z,86.23
2022-12-06T05:02:24.718Z,86.30
2022-12-06T05:04:52.756Z,86.28
2022-12-06T05:07:21.248Z,86.28
2022-12-06T05:09:49.311Z,86.25
2022-12-06T05:12:22.122Z,86.24
2022-12-06T05:15:02.107Z,86.22
2022-12-06T05:17:38.950Z,86.22
2022-12-06T05:20:14.971Z,86.20
2022-12-06T05:22:45.859Z,86.14
2022-12-06T05:25:16.557Z,86.12
2022-12-06T05:27:46.746Z,86.18
2022-12-06T05:30:23.639Z,86.20
2022-12-06T05:32:56.851Z,86.20
2022-12-06T05:35:27.694Z,86.25
2022-12-06T05:37:55.764Z,86.24
2022-12-06T05:40:23.597Z,86.27
2022-12-06T05:42:51.301Z,86.29
2022-12-06T05:45:19.683Z,86.33
2022-12-06T05:47:47.755Z,86.34
2022-12-06T05:50:16.164Z,86.27
2022-12-06T05:52:44.623Z,86.30
2022-12-06T05:55:12.533Z,86.31
2022-12-06T05:57:45.624Z,86.29
2022-12-06T06:00:11.460Z,86.35
2022-12-06T06:02:42.854Z,86.33
2022-12-06T06:05:12.205Z,86.34
2022-12-06T06:07:43.952Z,86.28
2022-12-06T06:10:15.920Z,86.28
2022-12-06T06:12:46.715Z,86.26
2022-12-06T06:15:19.121Z,86.25
2022-12-06T06:17:47.625Z,86.26
2022-12-06T06:20:15.279Z,86.21
2022-12-06T06:22:48.110Z,86.19
2022-12-06T06:25:19.977Z,86.17
2022-12-06T06:27:47.944Z,86.13
2022-12-06T06:30:16.012Z,86.10
2022-12-06T06:32:44.000Z,86.11
2022-12-06T06:35:11.993Z,86.09
2022-12-06T06:37:40.922Z,86.00
2022-12-06T06:40:10.879Z,85.96
2022-12-06T06:42:39.040Z,85.89
2022-12-06T06:45:07.725Z,85.87
2022-12-06T06:47:35.497Z,85.83
2022-12-06T06:50:03.979Z,85.69
2022-12-06T06:52:32.352Z,85.71
2022-12-06T06:55:00.140Z,85.58
2022-12-06T06:57:28.173Z,85.38
2022-12-06T06:59:56.019Z,85.17
2022-12-06T07:02:23.868Z,85.29
2022-12-06T07:04:51.823Z,85.34
2022-12-06T07:07:21.396Z,85.41
2022-12-06T07:09:49.526Z,85.42
2022-12-06T07:12:18.060Z,85.33
2022-12-06T07:14:45.793Z,85.33
2022-12-06T07:17:13.647Z,85.33
2022-12-06T07:19:41.292Z,85.31
2022-12-06T07:22:10.311Z,85.31
2022-12-06T07:24:42.148Z,85.35
2022-12-06T07:27:07.727Z,85.38
2022-12-06T07:29:35.720Z,85.34
2022-12-06T07:32:03.446Z,85.32
2022-12-06T07:34:31.103Z,85.33
2022-12-06T07:36:58.930Z,85.31
2022-12-06T07:39:26.624Z,85.29
2022-12-06T07:42:13.055Z,85.42
2022-12-06T07:45:02.311Z,85.42
2022-12-06T07:47:36.926Z,85.24
2022-12-06T07:50:08.113Z,85.19
2022-12-06T07:52:37.212Z,85.09
2022-12-06T07:55:06.694Z,85.12
2022-12-06T07:57:40.023Z,85.11
2022-12-06T08:00:07.234Z,85.10
2022-12-06T08:02:36.772Z,84.47
2022-12-06T08:05:05.160Z,84.49
2022-12-06T08:07:33.377Z,84.66
2022-12-06T08:10:01.379Z,84.73
2022-12-06T08:12:32.995Z,84.73
2022-12-06T08:15:00.629Z,84.75
2022-12-06T08:17:30.090Z,84.59
2022-12-06T08:19:58.218Z,84.48
2022-12-06T08:22:27.851Z,84.42
2022-12-06T08:24:55.760Z,84.18
2022-12-06T08:27:23.680Z,83.94
2022-12-06T08:29:51.494Z,84.23
2022-12-06T08:32:19.387Z,84.28
2022-12-06T08:34:47.065Z,84.45
2022-12-06T08:37:14.928Z,84.49
2022-12-06T08:39:42.708Z,84.64
2022-12-06T08:42:10.419Z,84.67
2022-12-06T08:44:38.058Z,84.80
2022-12-06T08:47:05.696Z,84.87
2022-12-06T08:49:33.657Z,84.80
2022-12-06T08:52:01.638Z,84.81
2022-12-06T08:54:29.640Z,84.73
2022-12-06T08:56:57.404Z,84.85
2022-12-06T08:59:25.343Z,84.73
2022-12-06T09:01:53.101Z,84.54
2022-12-06T09:04:20.611Z,84.18
2022-12-06T09:06:48.339Z,84.15
2022-12-06T09:09:17.919Z,84.06
2022-12-06T09:11:48.734Z,83.72
2022-12-06T09:14:21.876Z,83.80
2022-12-06T09:16:48.118Z,83.72
2022-12-06T09:19:15.947Z,83.34
2022-12-06T09:21:45.819Z,83.33
2022-12-06T09:24:17.247Z,83.21
2022-12-06T09:26:47.274Z,82.90
2022-12-06T09:29:15.996Z,82.51
2022-12-06T09:31:45.990Z,82.58
2022-12-06T09:34:14.473Z,82.12
2022-12-06T09:36:49.533Z,81.88
2022-12-06T09:39:25.760Z,81.47
2022-12-06T09:42:04.932Z,81.39
2022-12-06T09:45:02.260Z,81.20
2022-12-06T09:47:57.682Z,81.11
2022-12-06T09:51:13.929Z,80.68
2022-12-06T09:54:17.202Z,80.54
2022-12-06T09:56:52.457Z,80.52
2022-12-06T09:59:28.506Z,79.81
2022-12-06T10:02:24.425Z,79.21
2022-12-06T10:04:55.732Z,79.24
2022-12-06T10:07:57.836Z,79.02
2022-12-06T10:11:02.723Z,79.10
2022-12-06T10:14:03.517Z,78.66
2022-12-06T10:16:57.617Z,78.68
2022-12-06T10:19:36.575Z,78.73
2022-12-06T10:22:18.380Z,78.74
2022-12-06T10:25:15.919Z,78.46
2022-12-06T10:28:07.376Z,77.93
2022-12-06T10:30:51.373Z,77.61
2022-12-06T10:33:39.916Z,77.47
2022-12-06T10:36:10.151Z,77.40
2022-12-06T10:38:46.375Z,77.28
2022-12-06T10:41:38.121Z,77.06
2022-12-06T10:44:23.585Z,76.92
2022-12-06T10:47:12.482Z,76.73
2022-12-06T10:50:08.206Z,76.71
2022-12-06T10:52:50.384Z,76.74
2022-12-06T10:55:38.132Z,76.52
2022-12-06T10:58:29.227Z,76.37
2022-12-06T11:01:05.331Z,76.15
2022-12-06T11:03:43.752Z,76.47
2022-12-06T11:06:29.270Z,76.50
2022-12-06T11:09:02.340Z,76.64
2022-12-06T11:11:34.332Z,76.81
2022-12-06T11:14:10.324Z,76.82
2022-12-06T11:16:44.682Z,76.52
2022-12-06T11:19:35.842Z,76.35
2022-12-06T11:22:24.318Z,76.37
2022-12-06T11:25:27.117Z,76.36
2022-12-06T11:28:09.166Z,76.38
2022-12-06T11:30:37.529Z,75.94
2022-12-06T11:33:06.186Z,76.06
2022-12-06T11:35:36.863Z,76.19
2022-12-06T11:38:07.530Z,76.06
2022-12-06T11:40:45.663Z,75.93
2022-12-06T11:43:18.188Z,75.81
2022-12-06T11:45:47.250Z,76.09
2022-12-06T11:48:22.493Z,76.16
2022-12-06T11:50:53.483Z,76.11
2022-12-06T11:53:40.863Z,76.00
2022-12-06T11:56:24.056Z,75.83
2022-12-06T11:59:09.193Z,76.10
2022-12-06T12:01:49.963Z,76.13
2022-12-06T12:04:37.779Z,76.11
2022-12-06T12:07:16.745Z,76.08
2022-12-06T12:09:58.603Z,75.99
2022-12-06T12:13:04.942Z,76.03
2022-12-06T12:15:33.478Z,76.07
2022-12-06T12:18:04.043Z,76.12
2022-12-06T12:20:38.572Z,76.19
2022-12-06T12:23:19.628Z,76.21
2022-12-06T12:26:18.893Z,76.32
2022-12-06T12:29:20.029Z,76.47
2022-12-06T12:31:58.424Z,76.53
2022-12-06T12:34:30.957Z,76.60
2022-12-06T12:37:03.072Z,76.67
2022-12-06T12:39:53.253Z,76.75
2022-12-06T12:42:32.406Z,76.54
2022-12-06T12:45:04.296Z,76.56
2022-12-06T12:47:34.683Z,76.61
2022-12-06T12:50:18.361Z,76.56
2022-12-06T12:52:46.630Z,76.64
2022-12-06T12:55:23.197Z,76.60
2022-12-06T12:57:58.686Z,76.65
2022-12-06T13:00:29.648Z,76.89
2022-12-06T13:03:49.512Z,76.91
2022-12-06T13:05:50.630Z,77.01
2022-12-06T13:08:25.505Z,77.01
2022-12-06T13:10:59.250Z,77.05
2022-12-06T13:13:32.808Z,77.03
2022-12-06T13:16:07.284Z,77.07
2022-12-06T13:18:51.437Z,77.18
2022-12-06T13:21:36.075Z,77.16
2022-12-06T13:24:26.809Z,77.12
2022-12-06T13:27:05.260Z,77.22
2022-12-06T13:29:50.904Z,77.29
2022-12-06T13:32:45.286Z,77.41
2022-12-06T13:35:24.554Z,77.47
2022-12-06T13:37:57.931Z,77.54
2022-12-06T13:40:51.611Z,77.63
2022-12-06T13:43:33.922Z,77.72
2022-12-06T13:46:23.693Z,77.75
2022-12-06T13:49:04.771Z,77.72
2022-12-06T13:51:40.627Z,77.84
2022-12-06T13:54:20.136Z,77.93
2022-12-06T13:56:48.167Z,77.99
2022-12-06T13:59:21.550Z,77.99
2022-12-06T14:01:55.249Z,78.11
2022-12-06T14:09:46.685Z,78.11
2022-12-06T14:12:25.616Z,77.93
2022-12-06T14:14:59.536Z,77.85
2022-12-06T14:18:00.790Z,78.11
2022-12-06T14:20:27.445Z,78.20
2022-12-06T14:22:56.106Z,78.27
2022-12-06T14:25:28.125Z,78.31
2022-12-06T14:28:06.592Z,78.41
2022-12-06T14:30:34.633Z,78.49
2022-12-06T14:33:02.623Z,78.55
2022-12-06T14:35:35.495Z,78.61
2022-12-06T14:38:25.586Z,78.65
2022-12-06T14:41:12.584Z,78.74
2022-12-06T14:43:44.193Z,78.71
2022-12-06T14:46:15.782Z,78.82
2022-12-06T14:49:03.738Z,78.85
2022-12-06T14:51:39.861Z,78.98
2022-12-06T14:54:19.882Z,79.16
2022-12-06T14:56:48.081Z,79.26
2022-12-06T14:59:39.019Z,79.41
2022-12-06T15:01:56.370Z,79.45
2022-12-06T15:04:39.720Z,79.59
2022-12-06T15:07:14.480Z,79.66
2022-12-06T15:09:45.501Z,79.72
2022-12-06T15:12:43.377Z,79.75
2022-12-06T15:15:36.477Z,79.76
2022-12-06T15:18:24.269Z,79.72
2022-12-06T15:20:53.622Z,79.65
2022-12-06T15:23:39.272Z,79.56
2022-12-06T15:26:11.046Z,79.53
2022-12-06T15:28:39.700Z,79.61
2022-12-06T15:31:29.283Z,79.69
2022-12-06T15:33:57.321Z,79.80
2022-12-06T15:36:30.503Z,79.92
2022-12-06T15:38:58.227Z,79.92
2022-12-06T15:41:28.173Z,79.92
2022-12-06T15:43:58.755Z,80.01
2022-12-06T15:46:29.273Z,80.06
2022-12-06T15:48:57.589Z,80.19
2022-12-06T15:51:27.546Z,80.25
2022-12-06T15:53:58.932Z,80.36
2022-12-06T15:56:30.665Z,80.24
2022-12-06T15:58:58.921Z,80.25
2022-12-06T16:01:34.406Z,80.26
2022-12-06T16:04:02.860Z,80.28
2022-12-06T16:06:30.298Z,80.35
2022-12-06T16:08:58.093Z,80.38
2022-12-06T16:11:27.219Z,80.28
2022-12-06T16:14:03.333Z,80.39
2022-12-06T16:16:32.274Z,80.52
2022-12-06T16:19:01.522Z,80.64
2022-12-06T16:21:34.426Z,80.70
2022-12-06T16:24:13.446Z,80.87
2022-12-06T16:26:44.067Z,80.90
2022-12-06T16:29:18.384Z,81.02
2022-12-06T16:31:47.603Z,81.08
2022-12-06T16:34:15.990Z,81.20
2022-12-06T16:37:06.215Z,81.37
2022-12-06T16:39:36.015Z,81.43
2022-12-06T16:42:04.667Z,81.53
2022-12-06T16:44:32.698Z,81.64
2022-12-06T16:47:00.641Z,81.69
2022-12-06T16:49:45.661Z,81.82
2022-12-06T16:52:00.147Z,82.00
2022-12-06T16:54:28.330Z,82.15
2022-12-06T16:56:56.419Z,82.22
2022-12-06T16:59:24.726Z,82.31
2022-12-06T17:01:54.912Z,82.46
2022-12-06T17:04:23.419Z,82.45
2022-12-06T17:06:51.627Z,82.49
2022-12-06T17:09:19.378Z,82.53
2022-12-06T17:12:02.895Z,82.58
2022-12-06T17:14:30.975Z,82.65
2022-12-06T17:17:00.985Z,82.70
2022-12-06T17:19:30.684Z,82.90
2022-12-06T17:22:01.670Z,82.92
2022-12-06T17:24:29.962Z,82.96
2022-12-06T17:27:00.406Z,83.00
2022-12-06T17:29:28.578Z,83.00
2022-12-06T17:31:58.665Z,83.01
2022-12-06T17:34:26.620Z,83.08
2022-12-06T17:36:56.457Z,83.04
2022-12-06T17:39:25.355Z,83.02
2022-12-06T17:42:12.502Z,82.98
2022-12-06T17:44:40.670Z,83.10
2022-12-06T17:47:08.814Z,83.19
2022-12-06T17:49:37.816Z,83.26
2022-12-06T17:52:06.054Z,83.35
2022-12-06T17:54:34.393Z,83.35
2022-12-06T17:57:02.529Z,83.40
2022-12-06T17:59:32.591Z,83.49
2022-12-06T18:02:19.482Z,83.53
2022-12-06T18:04:33.745Z,83.57
2022-12-06T18:07:01.778Z,83.66
2022-12-06T18:09:29.794Z,83.86
2022-12-06T18:12:00.731Z,84.10
2022-12-06T18:14:28.806Z,84.29
2022-12-06T18:16:56.973Z,84.36
2022-12-06T18:19:24.906Z,84.51
2022-12-06T18:21:53.099Z,84.61
2022-12-06T18:24:23.856Z,84.71
2022-12-06T18:26:51.419Z,84.72
2022-12-06T18:29:22.774Z,84.81
2022-12-06T18:31:51.497Z,84.93
2022-12-06T18:34:21.344Z,85.00
2022-12-06T18:36:49.333Z,85.10
2022-12-06T18:39:22.096Z,85.11
2022-12-06T18:41:51.578Z,85.10
2022-12-06T18:44:19.477Z,85.26
2022-12-06T18:46:50.020Z,85.31
2022-12-06T18:49:19.883Z,85.31
2022-12-06T18:51:48.228Z,85.37
2022-12-06T18:54:16.841Z,85.42
2022-12-06T18:56:47.067Z,85.54
2022-12-06T18:59:15.306Z,85.57
2022-12-06T19:01:44.804Z,85.63
2022-12-06T19:04:14.290Z,85.67
2022-12-06T19:06:44.143Z,85.64
2022-12-06T19:09:15.587Z,85.69
2022-12-06T19:11:45.976Z,85.65
2022-12-06T19:14:15.576Z,85.77
2022-12-06T19:16:47.098Z,85.89
2022-12-06T19:19:19.739Z,85.92
2022-12-06T19:21:50.010Z,86.03
2022-12-06T19:24:22.808Z,86.08
2022-12-06T19:26:52.762Z,86.18
2022-12-06T19:29:21.713Z,86.17
2022-12-06T19:31:50.504Z,86.23
2022-12-06T19:34:25.525Z,86.34
2022-12-06T19:36:55.024Z,86.50
2022-12-06T19:39:24.668Z,86.56
2022-12-06T19:42:11.449Z,86.54
2022-12-06T19:44:40.973Z,86.55
2022-12-06T19:47:08.907Z,86.63
2022-12-06T19:49:36.968Z,86.72
2022-12-06T19:52:05.455Z,86.76
2022-12-06T19:54:35.490Z,86.78
2022-12-06T19:57:07.630Z,86.82
2022-12-06T19:59:36.686Z,86.87
2022-12-06T20:02:05.368Z,86.94
2022-12-06T20:04:36.855Z,87.04
2022-12-06T20:07:06.748Z,87.03
2022-12-06T20:09:46.982Z,87.09
2022-12-06T20:12:15.191Z,87.13
2022-12-06T20:14:48.559Z,87.16
2022-12-06T20:17:21.428Z,87.20
2022-12-06T20:19:49.575Z,87.21
2022-12-06T20:22:21.725Z,87.22
2022-12-06T20:24:50.001Z,87.29
2022-12-06T20:27:20.888Z,87.39
2022-12-06T20:29:49.003Z,87.49
2022-12-06T20:32:17.196Z,87.75
2022-12-06T20:34:44.892Z,87.69
2022-12-06T20:37:12.583Z,87.81
2022-12-06T20:39:40.538Z,87.94
2022-12-06T20:42:08.430Z,88.00
2022-12-06T20:44:36.313Z,88.04
2022-12-06T20:47:04.147Z,88.10
2022-12-06T20:49:31.901Z,88.16
2022-12-06T20:52:01.543Z,88.20
2022-12-06T20:54:30.040Z,88.26
2022-12-06T20:56:59.381Z,88.22
2022-12-06T20:59:28.734Z,88.27
2022-12-06T21:01:58.762Z,88.29
2022-12-06T21:04:31.344Z,88.38
2022-12-06T21:06:59.030Z,88.38
2022-12-06T21:09:27.030Z,88.36
2022-12-06T21:11:55.333Z,88.39
2022-12-06T21:14:23.626Z,88.39
2022-12-06T21:16:52.001Z,88.42
2022-12-06T21:19:20.283Z,88.37
2022-12-06T21:21:53.083Z,88.32
2022-12-06T21:24:22.142Z,88.32
2022-12-06T21:26:50.044Z,88.38
2022-12-06T21:29:30.407Z,88.40
2022-12-06T21:31:54.252Z,88.44
2022-12-06T21:34:21.841Z,88.49
2022-12-06T21:36:49.595Z,88.52
2022-12-06T21:39:19.173Z,88.54
2022-12-06T21:41:46.612Z,88.54
2022-12-06T21:44:13.999Z,88.57
2022-12-06T21:46:41.878Z,88.64
2022-12-06T21:49:10.383Z,88.72
2022-12-06T21:51:38.166Z,88.74
2022-12-06T21:54:05.989Z,88.71
2022-12-06T21:56:34.594Z,88.68
2022-12-06T21:59:03.351Z,88.67
2022-12-06T22:01:32.154Z,88.72
2022-12-06T22:04:03.922Z,88.76
2022-12-06T22:06:33.085Z,88.68
2022-12-06T22:09:05.532Z,88.60
2022-12-06T22:11:34.292Z,88.64
2022-12-06T22:14:04.644Z,88.71
2022-12-06T22:16:32.546Z,88.71
2022-12-06T22:19:00.585Z,88.77
2022-12-06T22:21:31.506Z,88.81
2022-12-06T22:26:35.109Z,88.83
2022-12-06T22:29:02.817Z,88.83
2022-12-06T22:31:33.837Z,88.83
2022-12-06T22:34:02.947Z,88.85
2022-12-06T22:36:33.270Z,88.87
2022-12-06T22:39:04.118Z,88.80
2022-12-06T22:41:32.994Z,88.80
2022-12-06T22:44:03.587Z,88.82
2022-12-06T22:46:33.279Z,88.90
2022-12-06T22:49:02.078Z,88.91
2022-12-06T22:51:33.747Z,88.93
2022-12-06T22:54:09.271Z,88.86
2022-12-06T22:56:39.965Z,88.85
2022-12-06T22:59:09.078Z,88.78
2022-12-06T23:01:36.528Z,88.91
2022-12-06T23:04:06.526Z,88.97
2022-12-06T23:06:37.434Z,89.06
2022-12-06T23:09:08.320Z,89.09
2022-12-06T23:11:37.007Z,89.14
2022-12-06T23:14:05.147Z,89.19
2022-12-06T23:16:33.249Z,89.19
2022-12-06T23:19:02.890Z,89.21
2022-12-06T23:21:33.811Z,89.15
2022-12-06T23:24:04.989Z,89.15
2022-12-06T23:26:45.289Z,89.15
2022-12-06T23:29:14.594Z,89.13
2022-12-06T23:31:44.880Z,89.20
2022-12-06T23:34:22.725Z,89.24
2022-12-06T23:36:50.669Z,89.30
2022-12-06T23:39:18.776Z,89.31
2022-12-06T23:41:46.664Z,89.30
2022-12-06T23:44:14.406Z,89.30
2022-12-06T23:46:43.656Z,89.29
2022-12-06T23:49:18.595Z,89.29
2022-12-06T23:51:47.167Z,89.29
2022-12-06T23:54:17.027Z,89.34
2022-12-06T23:56:46.167Z,89.37
2022-12-06T23:59:16.371Z,89.50
